CMA CGM Tosca — FMEL — position and weather

sailwx.info

Track history (hours):
 
Tides and Currents Weather Stations Pressure Air Temp Water Temp Dewpoint Dewpoint Depression Visibility Wind Speed Wind Dir Waves Ship Positions

CMA CGM Tosca

Last reported at 2015-Mar-09 20:14 UTC. Time now 2015-Mar-28 12:18 UTC.
Position N 36°22' E 014°36'.
Warning: this ship's position is 18 days out of date.

Length 334 m; draft 14.5 m.

Type: Cargo ship. MMSI: 228335900.

Date/timePositionNaut miles runAvg speedWind from/ knotsBaromVisibWave heightAir tempDewpointWater temp
2015-Mar-09 20:14N 36°22' E 014°36'1015.3
2015-Mar-09 19:33N 36°25' E 014°24'1515.5
2015-Mar-09 18:34N 36°30' E 014°05'1615.5
2015-Mar-09 17:33N 36°34' E 013°47'58815.3
2015-Mar-08 03:08N 36°50' E 001°34'915.7
2015-Mar-08 02:33N 36°48' E 001°22'1615.5
2015-Mar-08 01:32N 36°46' E 001°03'1616.1
2015-Mar-08 00:32N 36°44' E 000°43'1616.1
2015-Mar-07 23:33N 36°41' E 000°24'1815.9
2015-Mar-07 22:25N 36°38' E 000°02'1415.9
2015-Mar-07 21:33N 36°36' W 000°15'1615.6
2015-Mar-07 20:33N 36°34' W 000°34'1615.9
2015-Mar-07 19:32N 36°32' W 000°54'1515.5
2015-Mar-07 18:32N 36°29' W 001°13'19816.5
2015-Mar-07 06:33N 35°59' W 005°16'3215.8
2015-Mar-07 04:34N 35°53' W 005°54'9513.6
2015-Mar-06 21:33N 36°14' W 007°49'3213.7
2015-Mar-06 19:11N 36°23' W 008°28'914.0
2015-Mar-06 18:33N 36°26' W 008°38'1613.8
2015-Mar-06 17:23N 36°30' W 008°57'5112.1
2015-Mar-06 13:09N 37°09' W 009°39'914.6
2015-Mar-06 12:33N 37°18' W 009°41'1514.9
2015-Mar-06 11:33N 37°32' W 009°46'1615.4
2015-Mar-06 10:33N 37°47' W 009°51'1515.4
2015-Mar-06 09:33N 38°02' W 009°56'1615.5
2015-Mar-06 08:33N 38°17' W 010°01'1515.5
2015-Mar-06 07:33N 38°32' W 010°04'1515.1
2015-Mar-06 06:33N 38°47' W 010°06'1615.3
2015-Mar-06 05:32N 39°03' W 010°06'1615.3
2015-Mar-06 04:29N 39°19' W 010°06'  
2015-Mar-03 23:07N 49°42' W 000°48'916.0
2015-Mar-03 22:33N 49°39' W 000°35'1515.3
2015-Mar-03 21:33N 49°33' W 000°13'1212.1
2015-Mar-03 20:33N 49°29' E 000°05'4 3.5
2015-Mar-03 19:32N 49°29' E 000°10'0 0.0
2015-Mar-03 18:32N 49°29' E 000°10'0 0.0
2015-Mar-03 17:32N 49°29' E 000°10'0 0.0
2015-Mar-03 16:32N 49°29' E 000°10'0 0.0
2015-Mar-03 15:32N 49°29' E 000°10'0 0.0
2015-Mar-03 14:32N 49°29' E 000°10'0 0.0
2015-Mar-03 13:32N 49°29' E 000°10'0 0.0
2015-Mar-03 12:29N 49°29' E 000°10'0 0.0
2015-Mar-03 11:32N 49°29' E 000°10'0 0.0
2015-Mar-03 10:32N 49°29' E 000°10'0 0.0
2015-Mar-03 09:32N 49°29' E 000°10'0 0.0
2015-Mar-03 08:32N 49°29' E 000°10'0 0.0
2015-Mar-03 07:32N 49°29' E 000°10'0 0.0
2015-Mar-03 06:32N 49°29' E 000°10'0 0.0
2015-Mar-03 05:32N 49°29' E 000°10'0 0.0
2015-Mar-03 04:32N 49°29' E 000°10'0 0.0
2015-Mar-03 03:32N 49°29' E 000°10'0 0.0
2015-Mar-03 02:32N 49°29' E 000°10'0 0.0
2015-Mar-03 01:32N 49°29' E 000°10'0 0.0
2015-Mar-03 00:32N 49°29' E 000°10'0 0.0
2015-Mar-02 23:32N 49°29' E 000°10'0 0.0
2015-Mar-02 22:32N 49°29' E 000°10'0 0.4
2015-Mar-02 21:33N 49°28' E 000°09'1010.0
2015-Mar-02 20:33N 49°31' W 000°05'9 8.7
2015-Mar-02 19:33N 49°40' W 000°05'9 9.4
2015-Mar-02 18:33N 49°48' E 000°01'4314.4
2015-Mar-02 15:34N 50°29' E 000°22'1919.2
2015-Mar-02 14:34N 50°39' E 000°48'2120.1
2015-Mar-02 13:32N 50°51' E 001°14'1818.8
2015-Mar-02 12:33N 51°05' E 001°33'1110.8
2015-Mar-02 11:33N 51°02' E 001°49'1111.1
2015-Mar-02 10:33N 51°03' E 002°07'4 1.8
2015-Mar-02 08:30N 51°01' E 002°11'0 0.0
2015-Mar-02 07:34N 51°01' E 002°11'0 0.0
2015-Mar-02 06:21N 51°01' E 002°11'0 0.0
2015-Mar-02 05:15N 51°01' E 002°11'0 0.0
2015-Mar-02 04:21N 51°01' E 002°11'0 0.0
2015-Mar-02 03:18N 51°01' E 002°11'0 0.0
2015-Mar-02 02:27N 51°01' E 002°11'0 0.0
2015-Mar-02 01:33N 51°01' E 002°11'0 0.0
2015-Mar-01 23:28N 51°01' E 002°11'0 0.0
2015-Mar-01 22:15N 51°01' E 002°11'3 4.0
2015-Mar-01 21:33N 51°03' E 002°09'1313.2
2015-Mar-01 20:34N 51°01' E 001°48'8 8.1
2015-Mar-01 19:33N 51°08' E 001°41'1010.2
2015-Mar-01 18:34N 51°16' E 001°50'9 8.9
2015-Mar-01 17:34N 51°24' E 001°58'6 6.1
2015-Mar-01 16:33N 51°23' E 002°08'7 6.7
2015-Mar-01 15:33N 51°20' E 002°18'7 7.4
2015-Mar-01 14:34N 51°23' E 002°30'9 9.2
2015-Mar-01 13:34N 51°23' E 002°44'8 7.8
2015-Mar-01 12:34N 51°25' E 002°56'1010.5
2015-Mar-01 11:34N 51°25' E 003°13'1111.3
2015-Mar-01 10:33N 51°25' E 003°31'7 7.3
2015-Mar-01 09:34N 51°24' E 003°43'9 9.4
2015-Mar-01 08:33N 51°25' E 003°58'8 8.1
2015-Mar-01 07:33N 51°24' E 004°10'7 6.9
2015-Mar-01 06:33N 51°18' E 004°16'0 0.3
2015-Mar-01 05:31N 51°17' E 004°16'0 0.0
2015-Mar-01 04:31N 51°17' E 004°16'0 0.0
2015-Mar-01 03:31N 51°17' E 004°16'0 0.0
2015-Mar-01 02:31N 51°17' E 004°16'0 0.0
2015-Mar-01 01:28N 51°17' E 004°16'0 0.0
2015-Mar-01 00:31N 51°17' E 004°16'0 0.0
2015-Feb-28 23:31N 51°17' E 004°16'0 0.0
2015-Feb-28 22:31N 51°17' E 004°16'0 0.0
2015-Feb-28 21:31N 51°17' E 004°16'0 0.0
2015-Feb-28 20:31N 51°17' E 004°16'0 0.0
2015-Feb-28 19:32N 51°17' E 004°16'0 0.0
2015-Feb-28 18:32N 51°17' E 004°16'0 0.0
2015-Feb-28 17:32N 51°17' E 004°16'0 0.0
2015-Feb-28 16:32N 51°17' E 004°16'0 0.0
2015-Feb-28 15:32N 51°17' E 004°16'0 0.0
2015-Feb-28 14:32N 51°17' E 004°16'0 0.0
2015-Feb-28 13:32N 51°17' E 004°16'0 0.0
2015-Feb-28 12:32N 51°17' E 004°16'0 0.0
2015-Feb-28 11:32N 51°17' E 004°16'0 0.0
2015-Feb-28 10:32N 51°17' E 004°16'0 0.0
2015-Feb-28 09:32N 51°17' E 004°16'0 0.0
2015-Feb-28 08:32N 51°17' E 004°16'0 0.0
2015-Feb-28 07:32N 51°17' E 004°16'0 0.0
2015-Feb-28 06:32N 51°17' E 004°16'0 0.0
2015-Feb-28 05:32N 51°17' E 004°16'0 0.2
2015-Feb-28 04:34N 51°18' E 004°16'4 3.5
2015-Feb-28 03:34N 51°21' E 004°15'7 7.2
2015-Feb-28 02:34N 51°22' E 004°04'8 7.5
2015-Feb-28 01:33N 51°21' E 003°52'10 9.7
2015-Feb-28 00:34N 51°26' E 003°39'1212.0
2015-Feb-27 23:34N 51°24' E 003°20'1212.3
2015-Feb-27 22:34N 51°28' E 003°02'1616.4
2015-Feb-27 21:33N 51°43' E 003°12'1312.8
2015-Feb-27 20:31N 51°55' E 003°02'  
Track history (hours):
 
Tides and Currents Weather Stations Pressure Air Temp Water Temp Dewpoint Dewpoint Depression Visibility Wind Speed Wind Dir Waves Ship Positions

CMA CGM Tosca

Last reported at 2015-Mar-09 20:14 UTC. Time now 2015-Mar-28 12:18 UTC.
Position N 36°22' E 014°36'.
Warning: this ship's position is 18 days out of date.

Length 334 m; draft 14.5 m.

Type: Cargo ship. MMSI: 228335900.

Date/timePositionNaut miles runAvg speedWind from/ knotsBaromVisibWave heightAir tempDewpointWater temp
2015-Mar-09 20:14N 36°22' E 014°36'1015.3
2015-Mar-09 19:33N 36°25' E 014°24'1515.5
2015-Mar-09 18:34N 36°30' E 014°05'1615.5
2015-Mar-09 17:33N 36°34' E 013°47'58815.3
2015-Mar-08 03:08N 36°50' E 001°34'915.7
2015-Mar-08 02:33N 36°48' E 001°22'1615.5
2015-Mar-08 01:32N 36°46' E 001°03'1616.1
2015-Mar-08 00:32N 36°44' E 000°43'1616.1
2015-Mar-07 23:33N 36°41' E 000°24'1815.9
2015-Mar-07 22:25N 36°38' E 000°02'1415.9
2015-Mar-07 21:33N 36°36' W 000°15'1615.6
2015-Mar-07 20:33N 36°34' W 000°34'1615.9
2015-Mar-07 19:32N 36°32' W 000°54'1515.5
2015-Mar-07 18:32N 36°29' W 001°13'19816.5
2015-Mar-07 06:33N 35°59' W 005°16'3215.8
2015-Mar-07 04:34N 35°53' W 005°54'9513.6
2015-Mar-06 21:33N 36°14' W 007°49'3213.7
2015-Mar-06 19:11N 36°23' W 008°28'914.0
2015-Mar-06 18:33N 36°26' W 008°38'1613.8
2015-Mar-06 17:23N 36°30' W 008°57'5112.1
2015-Mar-06 13:09N 37°09' W 009°39'914.6
2015-Mar-06 12:33N 37°18' W 009°41'1514.9
2015-Mar-06 11:33N 37°32' W 009°46'1615.4
2015-Mar-06 10:33N 37°47' W 009°51'1515.4
2015-Mar-06 09:33N 38°02' W 009°56'1615.5
2015-Mar-06 08:33N 38°17' W 010°01'1515.5
2015-Mar-06 07:33N 38°32' W 010°04'1515.1
2015-Mar-06 06:33N 38°47' W 010°06'1615.3
2015-Mar-06 05:32N 39°03' W 010°06'1615.3
2015-Mar-06 04:29N 39°19' W 010°06'  
2015-Mar-03 23:07N 49°42' W 000°48'916.0
2015-Mar-03 22:33N 49°39' W 000°35'1515.3
2015-Mar-03 21:33N 49°33' W 000°13'1212.1
2015-Mar-03 20:33N 49°29' E 000°05'4 3.5
2015-Mar-03 19:32N 49°29' E 000°10'0 0.0
2015-Mar-03 18:32N 49°29' E 000°10'0 0.0
2015-Mar-03 17:32N 49°29' E 000°10'0 0.0
2015-Mar-03 16:32N 49°29' E 000°10'0 0.0
2015-Mar-03 15:32N 49°29' E 000°10'0 0.0
2015-Mar-03 14:32N 49°29' E 000°10'0 0.0
2015-Mar-03 13:32N 49°29' E 000°10'0 0.0
2015-Mar-03 12:29N 49°29' E 000°10'0 0.0
2015-Mar-03 11:32N 49°29' E 000°10'0 0.0
2015-Mar-03 10:32N 49°29' E 000°10'0 0.0
2015-Mar-03 09:32N 49°29' E 000°10'0 0.0
2015-Mar-03 08:32N 49°29' E 000°10'0 0.0
2015-Mar-03 07:32N 49°29' E 000°10'0 0.0
2015-Mar-03 06:32N 49°29' E 000°10'0 0.0
2015-Mar-03 05:32N 49°29' E 000°10'0 0.0
2015-Mar-03 04:32N 49°29' E 000°10'0 0.0
2015-Mar-03 03:32N 49°29' E 000°10'0 0.0
2015-Mar-03 02:32N 49°29' E 000°10'0 0.0
2015-Mar-03 01:32N 49°29' E 000°10'0 0.0
2015-Mar-03 00:32N 49°29' E 000°10'0 0.0
2015-Mar-02 23:32N 49°29' E 000°10'0 0.0
2015-Mar-02 22:32N 49°29' E 000°10'0 0.4
2015-Mar-02 21:33N 49°28' E 000°09'1010.0
2015-Mar-02 20:33N 49°31' W 000°05'9 8.7
2015-Mar-02 19:33N 49°40' W 000°05'9 9.4
2015-Mar-02 18:33N 49°48' E 000°01'4314.4
2015-Mar-02 15:34N 50°29' E 000°22'1919.2
2015-Mar-02 14:34N 50°39' E 000°48'2120.1
2015-Mar-02 13:32N 50°51' E 001°14'1818.8
2015-Mar-02 12:33N 51°05' E 001°33'1110.8
2015-Mar-02 11:33N 51°02' E 001°49'1111.1
2015-Mar-02 10:33N 51°03' E 002°07'4 1.8
2015-Mar-02 08:30N 51°01' E 002°11'0 0.0
2015-Mar-02 07:34N 51°01' E 002°11'0 0.0
2015-Mar-02 06:21N 51°01' E 002°11'0 0.0
2015-Mar-02 05:15N 51°01' E 002°11'0 0.0
2015-Mar-02 04:21N 51°01' E 002°11'0 0.0
2015-Mar-02 03:18N 51°01' E 002°11'0 0.0
2015-Mar-02 02:27N 51°01' E 002°11'0 0.0
2015-Mar-02 01:33N 51°01' E 002°11'0 0.0
2015-Mar-01 23:28N 51°01' E 002°11'0 0.0
2015-Mar-01 22:15N 51°01' E 002°11'3 4.0
2015-Mar-01 21:33N 51°03' E 002°09'1313.2
2015-Mar-01 20:34N 51°01' E 001°48'8 8.1
2015-Mar-01 19:33N 51°08' E 001°41'1010.2
2015-Mar-01 18:34N 51°16' E 001°50'9 8.9
2015-Mar-01 17:34N 51°24' E 001°58'6 6.1
2015-Mar-01 16:33N 51°23' E 002°08'7 6.7
2015-Mar-01 15:33N 51°20' E 002°18'7 7.4
2015-Mar-01 14:34N 51°23' E 002°30'9 9.2
2015-Mar-01 13:34N 51°23' E 002°44'8 7.8
2015-Mar-01 12:34N 51°25' E 002°56'1010.5
2015-Mar-01 11:34N 51°25' E 003°13'1111.3
2015-Mar-01 10:33N 51°25' E 003°31'7 7.3
2015-Mar-01 09:34N 51°24' E 003°43'9 9.4
2015-Mar-01 08:33N 51°25' E 003°58'8 8.1
2015-Mar-01 07:33N 51°24' E 004°10'7 6.9
2015-Mar-01 06:33N 51°18' E 004°16'0 0.3
2015-Mar-01 05:31N 51°17' E 004°16'0 0.0
2015-Mar-01 04:31N 51°17' E 004°16'0 0.0
2015-Mar-01 03:31N 51°17' E 004°16'0 0.0
2015-Mar-01 02:31N 51°17' E 004°16'0 0.0
2015-Mar-01 01:28N 51°17' E 004°16'0 0.0
2015-Mar-01 00:31N 51°17' E 004°16'0 0.0
2015-Feb-28 23:31N 51°17' E 004°16'0 0.0
2015-Feb-28 22:31N 51°17' E 004°16'0 0.0
2015-Feb-28 21:31N 51°17' E 004°16'0 0.0
2015-Feb-28 20:31N 51°17' E 004°16'0 0.0
2015-Feb-28 19:32N 51°17' E 004°16'0 0.0
2015-Feb-28 18:32N 51°17' E 004°16'0 0.0
2015-Feb-28 17:32N 51°17' E 004°16'0 0.0
2015-Feb-28 16:32N 51°17' E 004°16'0 0.0
2015-Feb-28 15:32N 51°17' E 004°16'0 0.0
2015-Feb-28 14:32N 51°17' E 004°16'0 0.0
2015-Feb-28 13:32N 51°17' E 004°16'0 0.0
2015-Feb-28 12:32N 51°17' E 004°16'0 0.0
2015-Feb-28 11:32N 51°17' E 004°16'0 0.0
2015-Feb-28 10:32N 51°17' E 004°16'0 0.0
2015-Feb-28 09:32N 51°17' E 004°16'0 0.0
2015-Feb-28 08:32N 51°17' E 004°16'0 0.0
2015-Feb-28 07:32N 51°17' E 004°16'0 0.0
2015-Feb-28 06:32N 51°17' E 004°16'0 0.0
2015-Feb-28 05:32N 51°17' E 004°16'0 0.2
2015-Feb-28 04:34N 51°18' E 004°16'4 3.5
2015-Feb-28 03:34N 51°21' E 004°15'7 7.2
2015-Feb-28 02:34N 51°22' E 004°04'8 7.5
2015-Feb-28 01:33N 51°21' E 003°52'10 9.7
2015-Feb-28 00:34N 51°26' E 003°39'1212.0
2015-Feb-27 23:34N 51°24' E 003°20'1212.3
2015-Feb-27 22:34N 51°28' E 003°02'1616.4
2015-Feb-27 21:33N 51°43' E 003°12'1312.8
2015-Feb-27 20:31N 51°55' E 003°02'  

Dump ship's entire track history